createdAt,value
2019-01-26T00:01:44.204Z,-1.20
2019-01-26T00:04:13.129Z,-1.20
2019-01-26T00:06:41.981Z,-1.20
2019-01-26T00:09:11.203Z,-1.20
2019-01-26T00:11:40.091Z,-1.20
2019-01-26T00:14:08.960Z,-1.20
2019-01-26T00:16:37.729Z,-1.20
2019-01-26T00:19:06.628Z,-1.20
2019-01-26T00:21:35.395Z,-1.10
2019-01-26T00:24:04.625Z,-1.10
2019-01-26T00:26:36.321Z,-1.10
2019-01-26T00:29:04.079Z,-1.10
2019-01-26T00:31:33.026Z,-1.00
2019-01-26T00:34:01.789Z,-1.10
2019-01-26T00:36:30.538Z,-1.10
2019-01-26T00:38:59.395Z,-1.00
2019-01-26T00:41:28.317Z,-1.00
2019-01-26T00:43:57.147Z,-1.00
2019-01-26T00:46:28.530Z,-1.00
2019-01-26T00:48:56.651Z,-1.00
2019-01-26T00:51:25.527Z,-1.00
2019-01-26T00:53:54.410Z,-1.00
2019-01-26T00:56:23.194Z,-1.00
2019-01-26T00:58:52.064Z,-0.90
2019-01-26T01:01:26.811Z,-0.90
2019-01-26T01:03:55.705Z,-0.90
2019-01-26T01:06:26.078Z,-0.90
2019-01-26T01:08:55.048Z,-0.90
2019-01-26T01:11:24.179Z,-0.90
2019-01-26T01:13:53.033Z,-0.80
2019-01-26T01:16:21.859Z,-0.90
2019-01-26T01:18:50.967Z,-0.90
2019-01-26T01:21:19.852Z,-0.80
2019-01-26T01:23:48.722Z,-0.80
2019-01-26T01:26:17.822Z,-0.70
2019-01-26T01:28:46.687Z,-0.70
2019-01-26T01:31:19.069Z,-0.70
2019-01-26T01:33:48.009Z,-0.70
2019-01-26T01:36:16.945Z,-0.70
2019-01-26T01:38:45.805Z,-0.70
2019-01-26T01:41:14.756Z,-0.70
2019-01-26T01:43:43.720Z,-0.70
2019-01-26T01:46:12.678Z,-0.70
2019-01-26T01:48:41.620Z,-0.70
2019-01-26T01:51:10.657Z,-0.80
2019-01-26T01:53:39.770Z,-0.80
2019-01-26T01:56:08.707Z,-0.80
2019-01-26T01:58:37.593Z,-0.80
2019-01-26T02:01:06.521Z,-0.80
2019-01-26T02:03:35.416Z,-0.80
2019-01-26T02:06:06.375Z,-0.80
2019-01-26T02:08:35.213Z,-0.80
2019-01-26T02:11:04.097Z,-0.80
2019-01-26T02:13:32.973Z,-0.70
2019-01-26T02:16:01.874Z,-0.70
2019-01-26T02:18:30.758Z,-0.70
2019-01-26T02:20:59.759Z,-0.70
2019-01-26T02:23:28.607Z,-0.70
2019-01-26T02:25:57.608Z,-0.80
2019-01-26T02:28:26.692Z,-0.80
2019-01-26T02:30:55.669Z,-0.80
2019-01-26T02:33:24.708Z,-0.80
2019-01-26T02:35:53.620Z,-0.80
2019-01-26T02:38:22.678Z,-0.80
2019-01-26T02:40:52.366Z,-0.80
2019-01-26T02:43:21.318Z,-0.80
2019-01-26T02:45:50.140Z,-0.90
2019-01-26T02:48:19.140Z,-0.90
2019-01-26T02:50:47.988Z,-0.90
2019-01-26T02:53:16.852Z,-0.90
2019-01-26T02:55:45.735Z,-0.90
2019-01-26T02:58:14.812Z,-0.90
2019-01-26T03:00:43.802Z,-0.90
2019-01-26T03:03:12.904Z,-0.80
2019-01-26T03:05:41.691Z,-0.80
2019-01-26T03:08:10.678Z,-0.80
2019-01-26T03:10:39.628Z,-0.80
2019-01-26T03:13:08.445Z,-0.80
2019-01-26T03:15:37.579Z,-0.80
2019-01-26T03:18:06.647Z,-0.80
2019-01-26T03:20:35.557Z,-0.80
2019-01-26T03:23:04.460Z,-0.80
2019-01-26T03:25:36.925Z,-0.80
2019-01-26T03:28:05.798Z,-0.80
2019-01-26T03:30:34.651Z,-0.80
2019-01-26T03:33:03.614Z,-0.80
2019-01-26T03:35:32.525Z,-0.80
2019-01-26T03:38:01.633Z,-0.80
2019-01-26T03:40:30.616Z,-0.80
2019-01-26T03:42:59.472Z,-0.80
2019-01-26T03:45:28.337Z,-0.70
2019-01-26T03:47:57.197Z,-0.70
2019-01-26T03:50:26.145Z,-0.70
2019-01-26T03:52:55.082Z,-0.70
2019-01-26T03:55:24.007Z,-0.70
2019-01-26T03:57:52.855Z,-0.70
2019-01-26T04:00:23.527Z,-0.60
2019-01-26T04:02:52.662Z,-0.70
2019-01-26T04:05:21.637Z,-0.70
2019-01-26T04:07:50.949Z,-0.60
2019-01-26T04:10:19.994Z,-0.60
2019-01-26T04:12:48.848Z,-0.60
2019-01-26T04:15:18.025Z,-0.60
2019-01-26T04:17:46.962Z,-0.50
2019-01-26T04:20:17.883Z,-0.50
2019-01-26T04:22:46.759Z,-0.50
2019-01-26T04:25:15.938Z,-0.50
2019-01-26T04:27:44.893Z,-0.50
2019-01-26T04:30:16.354Z,-0.50
2019-01-26T04:32:45.138Z,-0.50
2019-01-26T04:35:14.118Z,-0.50
2019-01-26T04:37:43.084Z,-0.40
2019-01-26T04:40:13.674Z,-0.40
2019-01-26T04:42:42.728Z,-0.40
2019-01-26T04:45:14.342Z,-0.40
2019-01-26T04:47:43.126Z,-0.40
2019-01-26T04:50:13.475Z,-0.40
2019-01-26T04:52:42.973Z,-0.30
2019-01-26T04:55:12.158Z,-0.30
2019-01-26T04:57:41.395Z,-0.30
2019-01-26T05:00:17.196Z,-0.30
2019-01-26T05:02:46.040Z,-0.30
2019-01-26T05:05:15.018Z,-0.20
2019-01-26T05:07:43.988Z,-0.20
2019-01-26T05:10:13.909Z,-0.20
2019-01-26T05:12:42.871Z,-0.20
2019-01-26T05:15:12.700Z,-0.10
2019-01-26T05:17:43.765Z,-0.10
2019-01-26T05:20:15.380Z,-0.10
2019-01-26T05:22:44.257Z,-0.10
2019-01-26T05:25:13.347Z,0.00
2019-01-26T05:27:42.957Z,0.00
2019-01-26T05:30:28.944Z,0.00
2019-01-26T05:32:57.873Z,0.00
2019-01-26T05:35:26.765Z,0.10
2019-01-26T05:37:55.727Z,0.10
2019-01-26T05:40:26.230Z,0.10
2019-01-26T05:42:55.009Z,0.10
2019-01-26T05:45:24.015Z,0.20
2019-01-26T05:47:53.018Z,0.20
2019-01-26T05:50:24.239Z,0.20
2019-01-26T05:52:53.504Z,0.20
2019-01-26T05:55:22.336Z,0.20
2019-01-26T05:57:51.357Z,0.20
2019-01-26T06:00:26.977Z,0.10
2019-01-26T06:02:56.039Z,0.10
2019-01-26T06:05:24.973Z,0.20
2019-01-26T06:07:53.833Z,0.20
2019-01-26T06:10:22.696Z,0.20
2019-01-26T06:12:51.715Z,0.30
2019-01-26T06:15:20.594Z,0.30
2019-01-26T06:17:55.028Z,0.30
2019-01-26T06:20:20.854Z,0.30
2019-01-26T06:22:49.629Z,0.40
2019-01-26T06:25:18.980Z,0.50
2019-01-26T06:27:48.172Z,0.50
2019-01-26T06:30:26.610Z,0.50
2019-01-26T06:32:55.380Z,0.50
2019-01-26T06:35:24.323Z,0.60
2019-01-26T06:37:53.147Z,0.60
2019-01-26T06:40:22.072Z,0.60
2019-01-26T06:42:54.337Z,0.60
2019-01-26T06:45:25.837Z,0.60
2019-01-26T06:48:01.859Z,0.60
2019-01-26T06:50:28.610Z,0.70
2019-01-26T06:52:57.595Z,0.70
2019-01-26T06:55:26.553Z,0.70
2019-01-26T06:57:55.485Z,0.70
2019-01-26T07:00:28.453Z,0.70
2019-01-26T07:02:57.626Z,0.70
2019-01-26T07:05:42.755Z,0.70
2019-01-26T07:08:15.994Z,0.80
2019-01-26T07:10:45.061Z,0.80
2019-01-26T07:13:17.113Z,0.80
2019-01-26T07:15:50.712Z,0.80
2019-01-26T07:18:20.064Z,0.80
2019-01-26T07:20:49.034Z,0.80
2019-01-26T07:23:17.954Z,0.90
2019-01-26T07:25:46.960Z,0.90
2019-01-26T07:28:15.938Z,0.90
2019-01-26T07:30:45.245Z,0.90
2019-01-26T07:33:14.152Z,0.90
2019-01-26T07:35:43.164Z,1.00
2019-01-26T07:38:13.747Z,1.00
2019-01-26T07:40:42.851Z,1.00
2019-01-26T07:43:11.777Z,1.10
2019-01-26T07:45:40.782Z,1.10
2019-01-26T07:48:16.552Z,1.20
2019-01-26T07:50:40.931Z,1.20
2019-01-26T07:53:09.978Z,1.20
2019-01-26T07:55:38.772Z,1.30
2019-01-26T07:58:07.734Z,1.30
2019-01-26T08:00:36.710Z,1.40
2019-01-26T08:03:05.580Z,1.40
2019-01-26T08:05:34.414Z,1.40
2019-01-26T08:08:03.310Z,1.50
2019-01-26T08:10:32.968Z,1.50
2019-01-26T08:13:01.988Z,1.50
2019-01-26T08:15:33.584Z,1.60
2019-01-26T08:18:02.754Z,1.60
2019-01-26T08:20:31.810Z,1.60
2019-01-26T08:23:00.811Z,1.60
2019-01-26T08:25:29.820Z,1.70
2019-01-26T08:27:58.830Z,1.70
2019-01-26T08:30:27.966Z,1.70
2019-01-26T08:32:56.773Z,1.70
2019-01-26T08:35:26.155Z,1.80
2019-01-26T08:37:55.211Z,1.80
2019-01-26T08:40:24.454Z,1.90
2019-01-26T08:42:53.714Z,1.90
2019-01-26T08:45:22.866Z,1.90
2019-01-26T08:47:52.118Z,2.00
2019-01-26T08:50:22.841Z,2.00
2019-01-26T08:52:52.237Z,2.10
2019-01-26T08:55:21.177Z,2.10
2019-01-26T08:57:52.616Z,2.20
2019-01-26T09:00:26.518Z,2.20
2019-01-26T09:03:14.593Z,2.20
2019-01-26T09:06:02.271Z,2.30
2019-01-26T09:08:31.275Z,2.30
2019-01-26T09:11:00.360Z,2.40
2019-01-26T09:13:29.731Z,2.40
2019-01-26T09:15:58.972Z,2.40
2019-01-26T09:18:27.943Z,2.40
2019-01-26T09:20:57.125Z,2.40
2019-01-26T09:23:28.522Z,2.50
2019-01-26T09:25:57.602Z,2.50
2019-01-26T09:28:28.633Z,2.50
2019-01-26T09:30:57.862Z,2.50
2019-01-26T09:33:26.861Z,2.50
2019-01-26T09:35:55.834Z,2.60
2019-01-26T09:38:24.779Z,2.60
2019-01-26T09:40:53.943Z,2.50
2019-01-26T09:43:23.259Z,2.60
2019-01-26T09:45:52.399Z,2.50
2019-01-26T09:48:21.333Z,2.60
2019-01-26T09:50:50.476Z,2.60
2019-01-26T09:53:19.335Z,2.60
2019-01-26T09:55:48.226Z,2.60
2019-01-26T09:58:17.061Z,2.70
2019-01-26T10:00:45.956Z,2.70
2019-01-26T10:03:14.849Z,2.70
2019-01-26T10:05:43.756Z,2.80
2019-01-26T10:08:12.783Z,2.80
2019-01-26T10:10:41.916Z,2.90
2019-01-26T10:13:10.857Z,2.90
2019-01-26T10:15:39.931Z,3.00
2019-01-26T10:18:08.923Z,3.00
2019-01-26T10:20:38.478Z,3.00
2019-01-26T10:23:07.349Z,3.00
2019-01-26T10:25:36.381Z,3.00
2019-01-26T10:28:05.988Z,3.10
2019-01-26T10:30:40.199Z,3.10
2019-01-26T10:33:09.135Z,3.10
2019-01-26T10:35:57.146Z,3.20
2019-01-26T10:38:25.992Z,3.20
2019-01-26T10:41:32.027Z,3.20
2019-01-26T10:44:01.037Z,3.20
2019-01-26T10:46:30.052Z,3.30
2019-01-26T10:49:00.755Z,3.30
2019-01-26T10:51:29.595Z,3.40
2019-01-26T10:53:58.762Z,3.40
2019-01-26T10:56:27.739Z,3.50
2019-01-26T10:58:56.525Z,3.50
2019-01-26T11:01:25.509Z,3.60
2019-01-26T11:03:54.491Z,3.60
2019-01-26T11:06:23.385Z,3.60
2019-01-26T11:08:52.542Z,3.70
2019-01-26T11:11:22.729Z,3.70
2019-01-26T11:13:51.838Z,3.70
2019-01-26T11:16:20.816Z,3.80
2019-01-26T11:18:51.881Z,3.80
2019-01-26T11:21:21.110Z,3.80
2019-01-26T11:23:50.566Z,3.80
2019-01-26T11:26:19.561Z,3.90
2019-01-26T11:28:48.356Z,4.00
2019-01-26T11:31:17.307Z,4.00
2019-01-26T11:33:46.225Z,4.00
2019-01-26T11:36:15.219Z,4.10
2019-01-26T11:38:44.311Z,4.10
2019-01-26T11:41:13.317Z,4.10
2019-01-26T11:43:42.299Z,4.10
2019-01-26T11:46:32.394Z,4.10
2019-01-26T11:49:01.280Z,4.10
2019-01-26T11:51:44.674Z,4.10
2019-01-26T11:54:13.713Z,4.10
2019-01-26T11:56:55.088Z,4.10
2019-01-26T11:59:24.145Z,4.10
2019-01-26T12:02:14.073Z,4.10
2019-01-26T12:04:50.753Z,4.20
2019-01-26T12:07:26.364Z,4.30
2019-01-26T12:09:55.459Z,4.30
2019-01-26T12:12:24.452Z,4.30
2019-01-26T12:14:53.444Z,4.30
2019-01-26T12:17:22.404Z,4.30
2019-01-26T12:19:51.361Z,4.40
2019-01-26T12:22:20.521Z,4.40
2019-01-26T12:24:49.394Z,4.40
2019-01-26T12:27:22.860Z,4.40
2019-01-26T12:29:51.792Z,4.40
2019-01-26T12:32:22.418Z,4.40
2019-01-26T12:34:53.888Z,4.40
2019-01-26T12:37:22.790Z,4.30
2019-01-26T12:39:53.502Z,4.30
2019-01-26T12:42:22.764Z,4.20
2019-01-26T12:44:51.673Z,4.30
2019-01-26T12:47:20.654Z,4.30
2019-01-26T12:49:49.678Z,4.30
2019-01-26T12:52:18.633Z,4.30
2019-01-26T12:54:48.033Z,4.30
2019-01-26T12:57:19.208Z,4.30
2019-01-26T12:59:48.065Z,4.30
2019-01-26T13:02:17.291Z,4.30
2019-01-26T13:04:49.499Z,4.30
2019-01-26T13:07:18.550Z,4.30
2019-01-26T13:09:47.550Z,4.30
2019-01-26T13:12:16.456Z,4.30
2019-01-26T13:14:45.371Z,4.40
2019-01-26T13:17:14.218Z,4.40
2019-01-26T13:19:43.150Z,4.30
2019-01-26T13:22:12.106Z,4.40
2019-01-26T13:24:41.061Z,4.40
2019-01-26T13:27:10.019Z,4.50
2019-01-26T13:29:38.856Z,4.40
2019-01-26T13:32:07.822Z,4.40
2019-01-26T13:34:36.729Z,4.40
2019-01-26T13:37:05.824Z,4.30
2019-01-26T13:39:34.613Z,4.30
2019-01-26T13:42:03.564Z,4.30
2019-01-26T13:44:32.438Z,4.20
2019-01-26T13:47:01.229Z,4.20
2019-01-26T13:49:30.105Z,4.20
2019-01-26T13:51:59.025Z,4.20
2019-01-26T13:54:27.955Z,4.20
2019-01-26T13:56:56.896Z,4.20
2019-01-26T13:59:26.052Z,4.20
2019-01-26T14:01:55.073Z,4.20
2019-01-26T14:04:24.006Z,4.20
2019-01-26T14:06:53.028Z,4.20
2019-01-26T14:09:21.835Z,4.20
2019-01-26T14:11:50.732Z,4.20
2019-01-26T14:14:19.667Z,4.20
2019-01-26T14:16:48.650Z,4.20
2019-01-26T14:19:17.520Z,4.20
2019-01-26T14:21:46.686Z,4.20
2019-01-26T14:24:15.618Z,4.20
2019-01-26T14:26:49.735Z,4.20
2019-01-26T14:29:15.068Z,4.30
2019-01-26T14:31:44.014Z,4.30
2019-01-26T14:34:12.808Z,4.30
2019-01-26T14:36:41.600Z,4.40
2019-01-26T14:39:10.444Z,4.40
2019-01-26T14:41:39.368Z,4.40
2019-01-26T14:44:08.198Z,4.40
2019-01-26T14:46:37.062Z,4.40
2019-01-26T14:49:06.171Z,4.40
2019-01-26T14:51:35.229Z,4.40
2019-01-26T14:54:04.072Z,4.30
2019-01-26T14:56:32.885Z,4.30
2019-01-26T14:59:01.698Z,4.30
2019-01-26T15:01:30.676Z,4.20
2019-01-26T15:03:59.744Z,4.20
2019-01-26T15:06:28.671Z,4.20
2019-01-26T15:08:57.454Z,4.20
2019-01-26T15:11:26.221Z,4.20
2019-01-26T15:13:54.988Z,4.10
2019-01-26T15:16:23.900Z,4.10
2019-01-26T15:18:52.779Z,4.00
2019-01-26T15:21:22.514Z,4.00
2019-01-26T15:23:51.824Z,4.00
2019-01-26T15:26:21.336Z,4.00
2019-01-26T15:28:58.025Z,4.00
2019-01-26T15:31:29.331Z,3.90
2019-01-26T15:34:01.285Z,3.90
2019-01-26T15:36:30.125Z,3.90
2019-01-26T15:39:00.229Z,3.90
2019-01-26T15:41:29.001Z,3.90
2019-01-26T15:43:57.827Z,3.90
2019-01-26T15:49:24.431Z,3.80
2019-01-26T15:51:53.327Z,3.80
2019-01-26T15:54:22.648Z,3.80
2019-01-26T15:56:51.655Z,3.80
2019-01-26T15:59:20.629Z,3.70
2019-01-26T16:01:49.613Z,3.70
2019-01-26T16:04:18.679Z,3.70
2019-01-26T16:06:47.543Z,3.70
2019-01-26T16:09:16.411Z,3.70
2019-01-26T16:11:45.295Z,3.80
2019-01-26T16:14:14.116Z,3.80
2019-01-26T16:16:43.410Z,3.80
2019-01-26T16:19:12.198Z,3.80
2019-01-26T16:21:41.024Z,3.70
2019-01-26T16:24:09.863Z,3.70
2019-01-26T16:26:38.641Z,3.70
2019-01-26T16:29:07.532Z,3.70
2019-01-26T16:31:36.335Z,3.80
2019-01-26T16:34:05.261Z,3.70
2019-01-26T16:36:34.022Z,3.70
2019-01-26T16:39:02.816Z,3.70
2019-01-26T16:41:31.727Z,3.70
2019-01-26T16:44:00.532Z,3.70
2019-01-26T16:46:29.339Z,3.70
2019-01-26T16:48:58.183Z,3.80
2019-01-26T16:51:29.887Z,3.80
2019-01-26T16:53:58.771Z,3.80
2019-01-26T16:56:27.941Z,3.70
2019-01-26T16:58:56.875Z,3.70
2019-01-26T17:01:25.751Z,3.70
2019-01-26T17:03:54.598Z,3.60
2019-01-26T17:06:23.747Z,3.60
2019-01-26T17:08:52.583Z,3.60
2019-01-26T17:11:21.385Z,3.60
2019-01-26T17:13:50.267Z,3.70
2019-01-26T17:16:19.148Z,3.70
2019-01-26T17:18:48.007Z,3.60
2019-01-26T17:21:17.004Z,3.70
2019-01-26T17:23:45.989Z,3.70
2019-01-26T17:26:14.792Z,3.70
2019-01-26T17:28:43.554Z,3.70
2019-01-26T17:31:12.364Z,3.70
2019-01-26T17:33:41.293Z,3.70
2019-01-26T17:36:10.178Z,3.80
2019-01-26T17:38:38.971Z,3.80
2019-01-26T17:41:07.835Z,3.80
2019-01-26T17:43:36.598Z,3.70
2019-01-26T17:46:05.777Z,3.70
2019-01-26T17:48:34.635Z,3.60
2019-01-26T17:51:03.452Z,3.60
2019-01-26T17:53:32.496Z,3.60
2019-01-26T17:56:01.397Z,3.60
2019-01-26T17:58:30.271Z,3.60
2019-01-26T18:01:00.360Z,3.60
2019-01-26T18:03:29.302Z,3.60
2019-01-26T18:05:58.275Z,3.60
2019-01-26T18:08:27.060Z,3.60
2019-01-26T18:10:56.079Z,3.60
2019-01-26T18:13:26.459Z,3.60
2019-01-26T18:15:55.287Z,3.50
2019-01-26T18:18:24.232Z,3.50
2019-01-26T18:20:53.387Z,3.60
2019-01-26T18:23:26.973Z,3.60
2019-01-26T18:25:55.972Z,3.50
2019-01-26T18:31:16.746Z,3.50
2019-01-26T18:33:57.438Z,3.50
2019-01-26T18:36:38.171Z,3.60
2019-01-26T18:39:19.560Z,3.60
2019-01-26T18:42:00.142Z,3.60
2019-01-26T18:44:41.102Z,3.60
2019-01-26T18:47:21.865Z,3.60
2019-01-26T18:50:02.935Z,3.60
2019-01-26T18:52:43.531Z,3.60
2019-01-26T18:55:24.482Z,3.60
2019-01-26T18:58:05.408Z,3.60
2019-01-26T19:00:49.261Z,3.60
2019-01-26T19:03:30.164Z,3.60
2019-01-26T19:06:11.260Z,3.60
2019-01-26T19:08:52.733Z,3.60
2019-01-26T19:11:33.963Z,3.60
2019-01-26T19:14:14.778Z,3.60
2019-01-26T19:16:55.490Z,3.60
2019-01-26T19:19:37.080Z,3.60
2019-01-26T19:22:18.332Z,3.60
2019-01-26T19:24:58.871Z,3.60
2019-01-26T19:27:39.971Z,3.60
2019-01-26T19:30:10.399Z,3.60
2019-01-26T19:32:58.648Z,3.60
2019-01-26T19:35:47.140Z,3.60
2019-01-26T19:38:27.554Z,3.60
2019-01-26T19:41:08.814Z,3.50
2019-01-26T19:43:48.023Z,3.50
2019-01-26T19:49:43.497Z,3.50
2019-01-26T19:52:24.051Z,3.50
2019-01-26T19:55:04.801Z,3.50
2019-01-26T19:57:45.760Z,3.60
2019-01-26T20:00:26.565Z,3.50
2019-01-26T20:03:06.925Z,3.50
2019-01-26T20:05:48.203Z,3.50
2019-01-26T20:08:36.564Z,3.50
2019-01-26T20:11:24.888Z,3.50
2019-01-26T20:17:02.011Z,3.60
2019-01-26T20:19:43.218Z,3.30
2019-01-26T20:22:24.315Z,3.60
2019-01-26T20:25:05.525Z,3.60
2019-01-26T20:27:46.667Z,3.60
2019-01-26T20:30:27.926Z,3.50
2019-01-26T20:33:08.581Z,3.60
2019-01-26T20:35:53.311Z,3.60
2019-01-26T20:38:34.728Z,3.60
2019-01-26T20:41:15.610Z,3.60
2019-01-26T20:43:56.597Z,3.60
2019-01-26T20:46:37.944Z,3.60
2019-01-26T20:49:19.101Z,3.60
2019-01-26T20:51:47.996Z,3.60
2019-01-26T20:54:37.422Z,3.60
2019-01-26T21:00:32.068Z,3.70
2019-01-26T21:03:12.542Z,3.80
2019-01-26T21:05:53.322Z,3.70
2019-01-26T21:08:34.771Z,3.80
2019-01-26T21:11:15.368Z,3.80
2019-01-26T21:13:44.289Z,3.80
2019-01-26T21:16:32.393Z,3.80
2019-01-26T21:19:20.446Z,3.80
2019-01-26T21:22:01.292Z,3.90
2019-01-26T21:24:43.476Z,4.00
2019-01-26T21:27:24.644Z,4.00
2019-01-26T21:30:05.777Z,4.10
2019-01-26T21:32:47.030Z,4.10
2019-01-26T21:35:27.735Z,4.10
2019-01-26T21:38:08.620Z,4.40
2019-01-26T21:40:49.692Z,4.20
2019-01-26T21:43:30.103Z,4.20
2019-01-26T21:46:10.915Z,4.20
2019-01-26T21:48:51.680Z,4.20
2019-01-26T21:51:38.810Z,4.30
2019-01-26T21:54:14.916Z,4.30
2019-01-26T21:56:55.885Z,4.30
2019-01-26T21:59:36.566Z,4.30
2019-01-26T22:02:17.564Z,4.30
2019-01-26T22:04:58.135Z,4.40
2019-01-26T22:07:39.036Z,4.40
2019-01-26T22:10:19.999Z,4.40
2019-01-26T22:16:02.498Z,4.50
2019-01-26T22:18:43.573Z,4.50
2019-01-26T22:21:24.978Z,4.50
2019-01-26T22:24:05.918Z,4.60
2019-01-26T22:26:46.940Z,4.60
2019-01-26T22:29:31.273Z,4.60
2019-01-26T22:32:10.589Z,4.60
2019-01-26T22:34:51.085Z,4.70
2019-01-26T22:37:31.897Z,4.70
2019-01-26T22:40:12.625Z,4.70
2019-01-26T22:42:53.340Z,4.80
2019-01-26T22:45:34.256Z,4.80
2019-01-26T22:48:15.247Z,4.80
2019-01-26T22:50:55.962Z,4.80
2019-01-26T22:53:36.701Z,4.80
2019-01-26T22:56:17.327Z,4.80
2019-01-26T22:58:57.877Z,4.80
2019-01-26T23:01:38.735Z,4.80
2019-01-26T23:04:19.459Z,4.80
2019-01-26T23:07:00.780Z,4.80
2019-01-26T23:09:41.510Z,4.90
2019-01-26T23:12:22.787Z,4.90
2019-01-26T23:15:20.453Z,4.90
2019-01-26T23:18:27.717Z,4.90
2019-01-26T23:21:08.863Z,4.80
2019-01-26T23:23:49.685Z,4.90
2019-01-26T23:26:30.533Z,4.90
2019-01-26T23:29:11.489Z,4.90
2019-01-26T23:31:52.593Z,4.90
2019-01-26T23:34:33.249Z,4.90
2019-01-26T23:37:14.112Z,4.90
2019-01-26T23:39:55.040Z,4.90
2019-01-26T23:42:35.857Z,4.90
2019-01-26T23:45:16.436Z,4.90
2019-01-26T23:47:56.942Z,4.90
2019-01-26T23:50:38.124Z,4.90
2019-01-26T23:53:19.179Z,4.90
2019-01-26T23:56:00.087Z,4.90
2019-01-26T23:58:40.675Z,4.90
